sensor_id;sensor_type;location;lat;lon;timestamp;temperature;humidity
16408;DHT22;8313;49.894;8.084;2022-12-07T00:01:21;4.20;99.90
16408;DHT22;8313;49.894;8.084;2022-12-07T00:03:49;4.10;99.90
16408;DHT22;8313;49.894;8.084;2022-12-07T00:06:16;4.20;99.90
16408;DHT22;8313;49.894;8.084;2022-12-07T00:08:42;4.30;99.90
16408;DHT22;8313;49.894;8.084;2022-12-07T00:11:19;4.30;99.90
16408;DHT22;8313;49.894;8.084;2022-12-07T00:13:46;4.30;99.90
16408;DHT22;8313;49.894;8.084;2022-12-07T00:16:17;4.30;99.90
16408;DHT22;8313;49.894;8.084;2022-12-07T00:18:43;4.40;99.90
16408;DHT22;8313;49.894;8.084;2022-12-07T00:23:37;4.50;99.90
16408;DHT22;8313;49.894;8.084;2022-12-07T00:26:11;4.50;99.90
16408;DHT22;8313;49.894;8.084;2022-12-07T00:28:37;4.40;99.90
16408;DHT22;8313;49.894;8.084;2022-12-07T00:31:06;4.40;99.90
16408;DHT22;8313;49.894;8.084;2022-12-07T00:33:33;4.40;99.90
16408;DHT22;8313;49.894;8.084;2022-12-07T00:36:00;4.40;99.90
16408;DHT22;8313;49.894;8.084;2022-12-07T00:38:29;4.50;99.90
16408;DHT22;8313;49.894;8.084;2022-12-07T00:40:56;4.50;99.90
16408;DHT22;8313;49.894;8.084;2022-12-07T00:43:22;4.50;99.90
16408;DHT22;8313;49.894;8.084;2022-12-07T00:45:48;4.60;99.90
16408;DHT22;8313;49.894;8.084;2022-12-07T00:48:13;4.60;99.90
16408;DHT22;8313;49.894;8.084;2022-12-07T00:50:39;4.60;99.90
16408;DHT22;8313;49.894;8.084;2022-12-07T00:53:05;4.60;99.90
16408;DHT22;8313;49.894;8.084;2022-12-07T00:55:35;4.60;99.90
16408;DHT22;8313;49.894;8.084;2022-12-07T00:58:00;4.50;99.90
16408;DHT22;8313;49.894;8.084;2022-12-07T01:00:26;4.60;99.90
16408;DHT22;8313;49.894;8.084;2022-12-07T01:02:52;4.60;99.90
16408;DHT22;8313;49.894;8.084;2022-12-07T01:05:18;4.50;99.90
16408;DHT22;8313;49.894;8.084;2022-12-07T01:07:44;4.50;99.90
16408;DHT22;8313;49.894;8.084;2022-12-07T01:10:10;4.50;99.90
16408;DHT22;8313;49.894;8.084;2022-12-07T01:12:35;4.40;99.90
16408;DHT22;8313;49.894;8.084;2022-12-07T01:15:01;4.30;99.90
16408;DHT22;8313;49.894;8.084;2022-12-07T01:17:28;4.10;99.90
16408;DHT22;8313;49.894;8.084;2022-12-07T01:19:54;4.10;99.90
16408;DHT22;8313;49.894;8.084;2022-12-07T01:22:19;4.10;99.90
16408;DHT22;8313;49.894;8.084;2022-12-07T01:24:45;4.20;99.90
16408;DHT22;8313;49.894;8.084;2022-12-07T01:27:12;4.20;99.90
16408;DHT22;8313;49.894;8.084;2022-12-07T01:29:38;4.10;99.90
16408;DHT22;8313;49.894;8.084;2022-12-07T01:32:04;4.10;99.90
16408;DHT22;8313;49.894;8.084;2022-12-07T01:34:30;4.20;99.90
16408;DHT22;8313;49.894;8.084;2022-12-07T01:36:55;4.30;99.90
16408;DHT22;8313;49.894;8.084;2022-12-07T01:39:21;4.20;99.90
16408;DHT22;8313;49.894;8.084;2022-12-07T01:41:47;4.20;99.90
16408;DHT22;8313;49.894;8.084;2022-12-07T01:44:20;4.20;99.90
16408;DHT22;8313;49.894;8.084;2022-12-07T01:46:51;4.30;99.90
16408;DHT22;8313;49.894;8.084;2022-12-07T01:52:14;4.30;99.90
16408;DHT22;8313;49.894;8.084;2022-12-07T01:54:42;4.20;99.90
16408;DHT22;8313;49.894;8.084;2022-12-07T01:57:08;4.20;99.90
16408;DHT22;8313;49.894;8.084;2022-12-07T01:59:35;4.20;99.90
16408;DHT22;8313;49.894;8.084;2022-12-07T02:02:02;4.30;99.90
16408;DHT22;8313;49.894;8.084;2022-12-07T02:04:29;4.40;99.90
16408;DHT22;8313;49.894;8.084;2022-12-07T02:06:56;4.40;99.90
16408;DHT22;8313;49.894;8.084;2022-12-07T02:09:22;4.40;99.90
16408;DHT22;8313;49.894;8.084;2022-12-07T02:11:48;4.40;99.90
16408;DHT22;8313;49.894;8.084;2022-12-07T02:14:13;4.40;99.90
16408;DHT22;8313;49.894;8.084;2022-12-07T02:27:50;4.10;99.90
16408;DHT22;8313;49.894;8.084;2022-12-07T02:30:20;4.10;99.90
16408;DHT22;8313;49.894;8.084;2022-12-07T02:35:35;4.00;99.90
16408;DHT22;8313;49.894;8.084;2022-12-07T02:38:27;4.00;99.90
16408;DHT22;8313;49.894;8.084;2022-12-07T02:41:04;4.10;99.90
16408;DHT22;8313;49.894;8.084;2022-12-07T02:43:39;4.20;99.90
16408;DHT22;8313;49.894;8.084;2022-12-07T02:46:12;4.20;99.90
16408;DHT22;8313;49.894;8.084;2022-12-07T02:48:40;4.20;99.90
16408;DHT22;8313;49.894;8.084;2022-12-07T02:51:06;4.20;99.90
16408;DHT22;8313;49.894;8.084;2022-12-07T02:53:34;4.30;99.90
16408;DHT22;8313;49.894;8.084;2022-12-07T02:56:06;4.30;99.90
16408;DHT22;8313;49.894;8.084;2022-12-07T02:58:39;4.30;99.90
16408;DHT22;8313;49.894;8.084;2022-12-07T03:04:02;4.10;99.90
16408;DHT22;8313;49.894;8.084;2022-12-07T03:06:36;4.00;99.90
16408;DHT22;8313;49.894;8.084;2022-12-07T03:09:32;4.00;99.90
16408;DHT22;8313;49.894;8.084;2022-12-07T03:12:09;4.00;99.90
16408;DHT22;8313;49.894;8.084;2022-12-07T03:14:41;4.00;99.90
16408;DHT22;8313;49.894;8.084;2022-12-07T03:17:16;4.10;99.90
16408;DHT22;8313;49.894;8.084;2022-12-07T03:19:45;4.10;99.90
16408;DHT22;8313;49.894;8.084;2022-12-07T03:22:13;4.20;99.90
16408;DHT22;8313;49.894;8.084;2022-12-07T03:24:58;4.20;99.90
16408;DHT22;8313;49.894;8.084;2022-12-07T03:27:26;4.10;99.90
16408;DHT22;8313;49.894;8.084;2022-12-07T03:29:59;4.20;99.90
16408;DHT22;8313;49.894;8.084;2022-12-07T03:35:03;4.10;99.90
16408;DHT22;8313;49.894;8.084;2022-12-07T03:42:43;3.90;99.90
16408;DHT22;8313;49.894;8.084;2022-12-07T03:45:09;3.80;99.90
16408;DHT22;8313;49.894;8.084;2022-12-07T03:47:43;3.80;99.90
16408;DHT22;8313;49.894;8.084;2022-12-07T03:52:54;3.70;99.90
16408;DHT22;8313;49.894;8.084;2022-12-07T03:55:29;3.80;99.90
16408;DHT22;8313;49.894;8.084;2022-12-07T03:58:00;3.80;99.90
16408;DHT22;8313;49.894;8.084;2022-12-07T04:00:27;3.80;99.90
16408;DHT22;8313;49.894;8.084;2022-12-07T04:02:53;3.80;99.90
16408;DHT22;8313;49.894;8.084;2022-12-07T04:05:20;3.80;99.90
16408;DHT22;8313;49.894;8.084;2022-12-07T04:07:46;3.90;99.90
16408;DHT22;8313;49.894;8.084;2022-12-07T04:10:11;3.80;99.90
16408;DHT22;8313;49.894;8.084;2022-12-07T04:12:37;3.70;99.90
16408;DHT22;8313;49.894;8.084;2022-12-07T04:15:03;3.70;99.90
16408;DHT22;8313;49.894;8.084;2022-12-07T04:17:29;3.70;99.90
16408;DHT22;8313;49.894;8.084;2022-12-07T04:19:55;3.70;99.90
16408;DHT22;8313;49.894;8.084;2022-12-07T04:22:20;3.70;99.90
16408;DHT22;8313;49.894;8.084;2022-12-07T04:24:46;3.90;99.90
16408;DHT22;8313;49.894;8.084;2022-12-07T04:27:12;3.80;99.90
16408;DHT22;8313;49.894;8.084;2022-12-07T04:29:37;3.80;99.90
16408;DHT22;8313;49.894;8.084;2022-12-07T04:32:03;3.80;99.90
16408;DHT22;8313;49.894;8.084;2022-12-07T04:34:29;3.80;99.90
16408;DHT22;8313;49.894;8.084;2022-12-07T04:36:54;3.90;99.90
16408;DHT22;8313;49.894;8.084;2022-12-07T04:39:21;3.90;99.90
16408;DHT22;8313;49.894;8.084;2022-12-07T04:41:48;3.80;99.90
16408;DHT22;8313;49.894;8.084;2022-12-07T04:44:14;3.90;99.90
16408;DHT22;8313;49.894;8.084;2022-12-07T04:46:40;3.90;99.90
16408;DHT22;8313;49.894;8.084;2022-12-07T04:49:06;3.90;99.90
16408;DHT22;8313;49.894;8.084;2022-12-07T04:51:32;3.90;99.90
16408;DHT22;8313;49.894;8.084;2022-12-07T04:53:58;3.90;99.90
16408;DHT22;8313;49.894;8.084;2022-12-07T04:56:24;3.90;99.90
16408;DHT22;8313;49.894;8.084;2022-12-07T04:58:51;3.90;99.90
16408;DHT22;8313;49.894;8.084;2022-12-07T05:01:18;3.80;99.90
16408;DHT22;8313;49.894;8.084;2022-12-07T05:03:44;3.80;99.90
16408;DHT22;8313;49.894;8.084;2022-12-07T05:06:10;3.80;99.90
16408;DHT22;8313;49.894;8.084;2022-12-07T05:08:37;3.80;99.90
16408;DHT22;8313;49.894;8.084;2022-12-07T05:11:04;3.80;99.90
16408;DHT22;8313;49.894;8.084;2022-12-07T05:13:30;3.80;99.90
16408;DHT22;8313;49.894;8.084;2022-12-07T05:15:56;3.80;99.90
16408;DHT22;8313;49.894;8.084;2022-12-07T05:18:22;3.80;99.90
16408;DHT22;8313;49.894;8.084;2022-12-07T05:20:47;3.80;99.90
16408;DHT22;8313;49.894;8.084;2022-12-07T05:23:13;3.70;99.90
16408;DHT22;8313;49.894;8.084;2022-12-07T05:25:39;3.80;99.90
16408;DHT22;8313;49.894;8.084;2022-12-07T05:28:05;3.90;99.90
16408;DHT22;8313;49.894;8.084;2022-12-07T05:30:32;3.80;99.90
16408;DHT22;8313;49.894;8.084;2022-12-07T05:32:57;3.80;99.90
16408;DHT22;8313;49.894;8.084;2022-12-07T05:35:23;3.80;99.90
16408;DHT22;8313;49.894;8.084;2022-12-07T05:37:49;3.80;99.90
16408;DHT22;8313;49.894;8.084;2022-12-07T05:40:15;3.80;99.90
16408;DHT22;8313;49.894;8.084;2022-12-07T05:42:42;3.90;99.90
16408;DHT22;8313;49.894;8.084;2022-12-07T05:45:08;3.90;99.90
16408;DHT22;8313;49.894;8.084;2022-12-07T05:47:35;3.90;99.90
16408;DHT22;8313;49.894;8.084;2022-12-07T05:50:01;3.80;99.90
16408;DHT22;8313;49.894;8.084;2022-12-07T05:52:26;3.80;99.90
16408;DHT22;8313;49.894;8.084;2022-12-07T05:54:52;3.90;99.90
16408;DHT22;8313;49.894;8.084;2022-12-07T05:57:18;3.90;99.90
16408;DHT22;8313;49.894;8.084;2022-12-07T05:59:44;3.90;99.90
16408;DHT22;8313;49.894;8.084;2022-12-07T06:02:12;3.80;99.90
16408;DHT22;8313;49.894;8.084;2022-12-07T06:04:40;3.80;99.90
16408;DHT22;8313;49.894;8.084;2022-12-07T06:07:07;3.90;99.90
16408;DHT22;8313;49.894;8.084;2022-12-07T06:09:33;4.00;99.90
16408;DHT22;8313;49.894;8.084;2022-12-07T06:11:59;3.90;99.90
16408;DHT22;8313;49.894;8.084;2022-12-07T06:14:44;3.90;99.90
16408;DHT22;8313;49.894;8.084;2022-12-07T06:17:10;3.90;99.90
16408;DHT22;8313;49.894;8.084;2022-12-07T06:19:36;4.00;99.90
16408;DHT22;8313;49.894;8.084;2022-12-07T06:22:02;4.00;99.90
16408;DHT22;8313;49.894;8.084;2022-12-07T06:24:31;4.00;99.90
16408;DHT22;8313;49.894;8.084;2022-12-07T06:26:57;3.90;99.90
16408;DHT22;8313;49.894;8.084;2022-12-07T06:29:23;3.90;99.90
16408;DHT22;8313;49.894;8.084;2022-12-07T06:31:48;3.90;99.90
16408;DHT22;8313;49.894;8.084;2022-12-07T06:34:17;3.90;99.90
16408;DHT22;8313;49.894;8.084;2022-12-07T06:36:43;3.90;99.90
16408;DHT22;8313;49.894;8.084;2022-12-07T06:39:09;3.90;99.90
16408;DHT22;8313;49.894;8.084;2022-12-07T06:41:36;3.90;99.90
16408;DHT22;8313;49.894;8.084;2022-12-07T06:44:03;3.90;99.90
16408;DHT22;8313;49.894;8.084;2022-12-07T06:46:29;4.00;99.90
16408;DHT22;8313;49.894;8.084;2022-12-07T06:48:55;3.90;99.90
16408;DHT22;8313;49.894;8.084;2022-12-07T06:51:20;3.90;99.90
16408;DHT22;8313;49.894;8.084;2022-12-07T06:53:47;3.90;99.90
16408;DHT22;8313;49.894;8.084;2022-12-07T06:56:12;3.90;99.90
16408;DHT22;8313;49.894;8.084;2022-12-07T06:58:38;4.00;99.90
16408;DHT22;8313;49.894;8.084;2022-12-07T07:01:13;4.00;99.90
16408;DHT22;8313;49.894;8.084;2022-12-07T07:03:39;4.10;99.90
16408;DHT22;8313;49.894;8.084;2022-12-07T07:06:06;4.00;99.90
16408;DHT22;8313;49.894;8.084;2022-12-07T07:08:36;4.00;99.90
16408;DHT22;8313;49.894;8.084;2022-12-07T07:11:02;4.00;99.90
16408;DHT22;8313;49.894;8.084;2022-12-07T07:13:28;3.80;99.90
16408;DHT22;8313;49.894;8.084;2022-12-07T07:15:54;3.80;99.90
16408;DHT22;8313;49.894;8.084;2022-12-07T07:18:20;3.90;99.90
16408;DHT22;8313;49.894;8.084;2022-12-07T07:20:46;3.90;99.90
16408;DHT22;8313;49.894;8.084;2022-12-07T07:23:12;4.00;99.90
16408;DHT22;8313;49.894;8.084;2022-12-07T07:25:38;4.00;99.90
16408;DHT22;8313;49.894;8.084;2022-12-07T07:28:04;4.00;99.90
16408;DHT22;8313;49.894;8.084;2022-12-07T07:30:29;4.20;99.90
16408;DHT22;8313;49.894;8.084;2022-12-07T07:32:59;4.20;99.90
16408;DHT22;8313;49.894;8.084;2022-12-07T07:35:26;4.30;99.90
16408;DHT22;8313;49.894;8.084;2022-12-07T07:37:52;4.30;99.90
16408;DHT22;8313;49.894;8.084;2022-12-07T07:40:18;4.40;99.90
16408;DHT22;8313;49.894;8.084;2022-12-07T07:42:43;4.40;99.90
16408;DHT22;8313;49.894;8.084;2022-12-07T07:45:09;4.40;99.90
16408;DHT22;8313;49.894;8.084;2022-12-07T07:47:35;4.40;99.90
16408;DHT22;8313;49.894;8.084;2022-12-07T07:50:01;4.40;99.90
16408;DHT22;8313;49.894;8.084;2022-12-07T07:52:27;4.50;99.90
16408;DHT22;8313;49.894;8.084;2022-12-07T07:54:53;4.50;99.90
16408;DHT22;8313;49.894;8.084;2022-12-07T07:57:18;4.50;99.90
16408;DHT22;8313;49.894;8.084;2022-12-07T07:59:44;4.50;99.90
16408;DHT22;8313;49.894;8.084;2022-12-07T08:02:18;4.50;99.90
16408;DHT22;8313;49.894;8.084;2022-12-07T08:04:45;4.50;99.90
16408;DHT22;8313;49.894;8.084;2022-12-07T08:07:12;4.40;99.90
16408;DHT22;8313;49.894;8.084;2022-12-07T08:09:37;4.30;99.90
16408;DHT22;8313;49.894;8.084;2022-12-07T08:12:04;4.20;99.90
16408;DHT22;8313;49.894;8.084;2022-12-07T08:14:30;4.20;99.90
16408;DHT22;8313;49.894;8.084;2022-12-07T08:16:56;4.20;99.90
16408;DHT22;8313;49.894;8.084;2022-12-07T08:19:22;4.20;99.90
16408;DHT22;8313;49.894;8.084;2022-12-07T08:21:47;4.20;99.90
16408;DHT22;8313;49.894;8.084;2022-12-07T08:24:13;4.30;99.90
16408;DHT22;8313;49.894;8.084;2022-12-07T08:26:39;4.40;99.90
16408;DHT22;8313;49.894;8.084;2022-12-07T08:29:05;4.40;99.90
16408;DHT22;8313;49.894;8.084;2022-12-07T08:31:31;4.40;99.90
16408;DHT22;8313;49.894;8.084;2022-12-07T08:33:57;4.40;99.90
16408;DHT22;8313;49.894;8.084;2022-12-07T08:36:23;4.40;99.90
16408;DHT22;8313;49.894;8.084;2022-12-07T08:38:49;4.30;99.90
16408;DHT22;8313;49.894;8.084;2022-12-07T08:41:14;4.30;99.90
16408;DHT22;8313;49.894;8.084;2022-12-07T08:43:40;4.30;99.90
16408;DHT22;8313;49.894;8.084;2022-12-07T08:48:41;4.30;99.90
16408;DHT22;8313;49.894;8.084;2022-12-07T08:51:09;4.30;99.90
16408;DHT22;8313;49.894;8.084;2022-12-07T08:53:35;4.30;99.90
16408;DHT22;8313;49.894;8.084;2022-12-07T08:56:02;4.30;99.90
16408;DHT22;8313;49.894;8.084;2022-12-07T08:58:29;4.30;99.90
16408;DHT22;8313;49.894;8.084;2022-12-07T09:00:55;4.20;99.90
16408;DHT22;8313;49.894;8.084;2022-12-07T09:03:20;4.20;99.90
16408;DHT22;8313;49.894;8.084;2022-12-07T09:05:46;4.10;99.90
16408;DHT22;8313;49.894;8.084;2022-12-07T09:08:12;4.10;99.90
16408;DHT22;8313;49.894;8.084;2022-12-07T09:10:38;4.10;99.90
16408;DHT22;8313;49.894;8.084;2022-12-07T09:13:04;4.10;99.90
16408;DHT22;8313;49.894;8.084;2022-12-07T09:15:30;4.00;99.90
16408;DHT22;8313;49.894;8.084;2022-12-07T09:17:55;4.10;99.90
16408;DHT22;8313;49.894;8.084;2022-12-07T09:20:21;4.10;99.90
16408;DHT22;8313;49.894;8.084;2022-12-07T09:22:47;4.20;99.90
16408;DHT22;8313;49.894;8.084;2022-12-07T09:25:13;4.30;99.90
16408;DHT22;8313;49.894;8.084;2022-12-07T09:27:39;4.40;99.90
16408;DHT22;8313;49.894;8.084;2022-12-07T09:30:05;4.40;99.90
16408;DHT22;8313;49.894;8.084;2022-12-07T09:32:31;4.50;99.90
16408;DHT22;8313;49.894;8.084;2022-12-07T09:34:57;4.60;99.90
16408;DHT22;8313;49.894;8.084;2022-12-07T09:37:22;4.60;99.90
16408;DHT22;8313;49.894;8.084;2022-12-07T09:39:48;4.70;99.90
16408;DHT22;8313;49.894;8.084;2022-12-07T09:42:34;4.70;99.90
16408;DHT22;8313;49.894;8.084;2022-12-07T09:45:01;4.80;99.90
16408;DHT22;8313;49.894;8.084;2022-12-07T09:47:27;4.80;99.90
16408;DHT22;8313;49.894;8.084;2022-12-07T09:50:06;4.90;99.90
16408;DHT22;8313;49.894;8.084;2022-12-07T09:52:33;4.90;99.90
16408;DHT22;8313;49.894;8.084;2022-12-07T09:54:58;5.00;99.90
16408;DHT22;8313;49.894;8.084;2022-12-07T09:57:34;5.10;99.90
16408;DHT22;8313;49.894;8.084;2022-12-07T10:00:06;5.10;99.90
16408;DHT22;8313;49.894;8.084;2022-12-07T10:02:38;5.20;99.90
16408;DHT22;8313;49.894;8.084;2022-12-07T10:05:12;5.20;99.90
16408;DHT22;8313;49.894;8.084;2022-12-07T10:07:38;5.20;99.90
16408;DHT22;8313;49.894;8.084;2022-12-07T10:10:12;5.30;99.90
16408;DHT22;8313;49.894;8.084;2022-12-07T10:13:00;5.30;99.90
16408;DHT22;8313;49.894;8.084;2022-12-07T10:21:22;5.30;99.90
16408;DHT22;8313;49.894;8.084;2022-12-07T10:24:13;5.40;99.90
16408;DHT22;8313;49.894;8.084;2022-12-07T10:29:31;5.50;99.90
16408;DHT22;8313;49.894;8.084;2022-12-07T10:32:00;5.50;99.90
16408;DHT22;8313;49.894;8.084;2022-12-07T10:34:32;5.50;99.90
16408;DHT22;8313;49.894;8.084;2022-12-07T10:39:51;5.50;99.90
16408;DHT22;8313;49.894;8.084;2022-12-07T10:42:24;5.50;99.90
16408;DHT22;8313;49.894;8.084;2022-12-07T10:45:08;5.50;99.90
16408;DHT22;8313;49.894;8.084;2022-12-07T10:53:16;5.70;99.90
16408;DHT22;8313;49.894;8.084;2022-12-07T11:01:18;5.80;99.90
16408;DHT22;8313;49.894;8.084;2022-12-07T11:09:44;5.90;99.90
16408;DHT22;8313;49.894;8.084;2022-12-07T11:18:36;5.90;99.90
16408;DHT22;8313;49.894;8.084;2022-12-07T11:37:36;6.10;99.90
16408;DHT22;8313;49.894;8.084;2022-12-07T11:40:14;6.10;99.90
16408;DHT22;8313;49.894;8.084;2022-12-07T11:42:45;6.10;99.90
16408;DHT22;8313;49.894;8.084;2022-12-07T11:45:19;6.10;99.90
16408;DHT22;8313;49.894;8.084;2022-12-07T11:47:54;6.10;99.90
16408;DHT22;8313;49.894;8.084;2022-12-07T11:50:48;6.20;99.90
16408;DHT22;8313;49.894;8.084;2022-12-07T11:53:21;6.20;99.90
16408;DHT22;8313;49.894;8.084;2022-12-07T11:56:12;6.20;99.90
16408;DHT22;8313;49.894;8.084;2022-12-07T12:03:56;6.20;99.90
16408;DHT22;8313;49.894;8.084;2022-12-07T12:06:23;6.30;99.90
16408;DHT22;8313;49.894;8.084;2022-12-07T12:18:02;6.30;99.90
16408;DHT22;8313;49.894;8.084;2022-12-07T12:23:16;6.40;99.90
16408;DHT22;8313;49.894;8.084;2022-12-07T12:25:50;6.40;99.90
16408;DHT22;8313;49.894;8.084;2022-12-07T12:31:11;6.40;99.90
16408;DHT22;8313;49.894;8.084;2022-12-07T12:33:46;6.40;99.90
16408;DHT22;8313;49.894;8.084;2022-12-07T12:50:22;6.50;99.90
16408;DHT22;8313;49.894;8.084;2022-12-07T12:58:33;6.50;99.90
16408;DHT22;8313;49.894;8.084;2022-12-07T13:04:03;6.50;99.90
16408;DHT22;8313;49.894;8.084;2022-12-07T13:06:40;6.50;99.90
16408;DHT22;8313;49.894;8.084;2022-12-07T13:09:27;6.50;99.90
16408;DHT22;8313;49.894;8.084;2022-12-07T13:12:11;6.40;99.90
16408;DHT22;8313;49.894;8.084;2022-12-07T13:25:05;6.40;99.90
16408;DHT22;8313;49.894;8.084;2022-12-07T13:27:34;6.40;99.90
16408;DHT22;8313;49.894;8.084;2022-12-07T13:30:00;6.40;99.90
16408;DHT22;8313;49.894;8.084;2022-12-07T13:32:28;6.40;99.90
16408;DHT22;8313;49.894;8.084;2022-12-07T13:34:55;6.40;99.90
16408;DHT22;8313;49.894;8.084;2022-12-07T13:37:29;6.50;99.90
16408;DHT22;8313;49.894;8.084;2022-12-07T13:42:34;6.40;99.90
16408;DHT22;8313;49.894;8.084;2022-12-07T13:45:25;6.40;99.90
16408;DHT22;8313;49.894;8.084;2022-12-07T13:48:15;6.40;99.90
16408;DHT22;8313;49.894;8.084;2022-12-07T13:50:53;6.40;99.90
16408;DHT22;8313;49.894;8.084;2022-12-07T13:53:19;6.40;99.90
16408;DHT22;8313;49.894;8.084;2022-12-07T13:55:46;6.40;99.90
16408;DHT22;8313;49.894;8.084;2022-12-07T13:58:13;6.40;99.90
16408;DHT22;8313;49.894;8.084;2022-12-07T14:00:40;6.50;99.90
16408;DHT22;8313;49.894;8.084;2022-12-07T14:05:39;6.50;99.90
16408;DHT22;8313;49.894;8.084;2022-12-07T14:08:21;6.50;99.90
16408;DHT22;8313;49.894;8.084;2022-12-07T14:13:37;6.40;99.90
16408;DHT22;8313;49.894;8.084;2022-12-07T14:16:29;6.40;99.90
16408;DHT22;8313;49.894;8.084;2022-12-07T14:18:57;6.40;99.90
16408;DHT22;8313;49.894;8.084;2022-12-07T14:21:25;6.50;99.90
16408;DHT22;8313;49.894;8.084;2022-12-07T14:24:16;6.40;99.90
16408;DHT22;8313;49.894;8.084;2022-12-07T14:26:47;6.40;99.90
16408;DHT22;8313;49.894;8.084;2022-12-07T14:29:31;6.30;99.90
16408;DHT22;8313;49.894;8.084;2022-12-07T14:34:42;6.20;99.90
16408;DHT22;8313;49.894;8.084;2022-12-07T14:37:17;6.20;99.90
16408;DHT22;8313;49.894;8.084;2022-12-07T14:39:43;6.20;99.90
16408;DHT22;8313;49.894;8.084;2022-12-07T14:42:09;6.20;99.90
16408;DHT22;8313;49.894;8.084;2022-12-07T14:44:34;6.10;99.90
16408;DHT22;8313;49.894;8.084;2022-12-07T14:47:00;6.20;99.90
16408;DHT22;8313;49.894;8.084;2022-12-07T14:49:25;6.20;99.90
16408;DHT22;8313;49.894;8.084;2022-12-07T14:51:52;6.20;99.90
16408;DHT22;8313;49.894;8.084;2022-12-07T14:54:20;6.10;99.90
16408;DHT22;8313;49.894;8.084;2022-12-07T14:56:46;6.10;99.90
16408;DHT22;8313;49.894;8.084;2022-12-07T14:59:16;6.10;99.90
16408;DHT22;8313;49.894;8.084;2022-12-07T15:01:42;6.10;99.90
16408;DHT22;8313;49.894;8.084;2022-12-07T15:04:08;6.10;99.90
16408;DHT22;8313;49.894;8.084;2022-12-07T15:06:34;6.00;99.90
16408;DHT22;8313;49.894;8.084;2022-12-07T15:09:00;6.00;99.90
16408;DHT22;8313;49.894;8.084;2022-12-07T15:11:25;6.00;99.90
16408;DHT22;8313;49.894;8.084;2022-12-07T15:13:51;6.00;99.90
16408;DHT22;8313;49.894;8.084;2022-12-07T15:16:39;6.10;99.90
16408;DHT22;8313;49.894;8.084;2022-12-07T15:19:13;6.20;99.90
16408;DHT22;8313;49.894;8.084;2022-12-07T15:21:40;6.20;99.90
16408;DHT22;8313;49.894;8.084;2022-12-07T15:24:06;6.10;99.90
16408;DHT22;8313;49.894;8.084;2022-12-07T15:26:31;6.10;99.90
16408;DHT22;8313;49.894;8.084;2022-12-07T15:28:57;6.00;99.90
16408;DHT22;8313;49.894;8.084;2022-12-07T15:31:23;6.00;99.90
16408;DHT22;8313;49.894;8.084;2022-12-07T15:33:48;5.90;99.90
16408;DHT22;8313;49.894;8.084;2022-12-07T15:36:22;5.90;99.90
16408;DHT22;8313;49.894;8.084;2022-12-07T15:38:49;5.90;99.90
16408;DHT22;8313;49.894;8.084;2022-12-07T15:41:15;5.90;99.90
16408;DHT22;8313;49.894;8.084;2022-12-07T15:43:41;5.70;99.90
16408;DHT22;8313;49.894;8.084;2022-12-07T15:46:39;5.60;99.90
16408;DHT22;8313;49.894;8.084;2022-12-07T15:49:17;5.60;99.90
16408;DHT22;8313;49.894;8.084;2022-12-07T15:51:44;5.60;99.90
16408;DHT22;8313;49.894;8.084;2022-12-07T15:54:13;5.50;99.90
16408;DHT22;8313;49.894;8.084;2022-12-07T15:56:41;5.30;99.90
16408;DHT22;8313;49.894;8.084;2022-12-07T15:59:07;5.40;99.90
16408;DHT22;8313;49.894;8.084;2022-12-07T16:01:32;5.40;99.90
16408;DHT22;8313;49.894;8.084;2022-12-07T16:03:58;5.50;99.90
16408;DHT22;8313;49.894;8.084;2022-12-07T16:06:25;5.50;99.90
16408;DHT22;8313;49.894;8.084;2022-12-07T16:08:50;5.60;99.90
16408;DHT22;8313;49.894;8.084;2022-12-07T16:11:16;5.60;99.90
16408;DHT22;8313;49.894;8.084;2022-12-07T16:13:42;5.60;99.90
16408;DHT22;8313;49.894;8.084;2022-12-07T16:16:12;5.70;99.90
16408;DHT22;8313;49.894;8.084;2022-12-07T16:18:39;5.80;99.90
16408;DHT22;8313;49.894;8.084;2022-12-07T16:21:04;5.80;99.90
16408;DHT22;8313;49.894;8.084;2022-12-07T16:23:30;5.80;99.90
16408;DHT22;8313;49.894;8.084;2022-12-07T16:26:07;5.70;99.90
16408;DHT22;8313;49.894;8.084;2022-12-07T16:28:33;5.70;99.90
16408;DHT22;8313;49.894;8.084;2022-12-07T16:31:03;5.70;99.90
16408;DHT22;8313;49.894;8.084;2022-12-07T16:33:30;5.80;99.90
16408;DHT22;8313;49.894;8.084;2022-12-07T16:35:55;5.80;99.90
16408;DHT22;8313;49.894;8.084;2022-12-07T16:38:21;5.80;99.90
16408;DHT22;8313;49.894;8.084;2022-12-07T16:40:47;5.70;99.90
16408;DHT22;8313;49.894;8.084;2022-12-07T16:43:13;5.70;99.90
16408;DHT22;8313;49.894;8.084;2022-12-07T16:45:39;5.70;99.90
16408;DHT22;8313;49.894;8.084;2022-12-07T16:48:05;5.70;99.90
16408;DHT22;8313;49.894;8.084;2022-12-07T16:50:31;5.60;99.90
16408;DHT22;8313;49.894;8.084;2022-12-07T16:52:56;5.50;99.90
16408;DHT22;8313;49.894;8.084;2022-12-07T16:55:22;5.30;99.90
16408;DHT22;8313;49.894;8.084;2022-12-07T16:57:47;5.20;99.90
16408;DHT22;8313;49.894;8.084;2022-12-07T17:00:13;5.30;99.90
16408;DHT22;8313;49.894;8.084;2022-12-07T17:02:39;5.20;99.90
16408;DHT22;8313;49.894;8.084;2022-12-07T17:05:05;5.20;99.90
16408;DHT22;8313;49.894;8.084;2022-12-07T17:07:30;5.10;99.90
16408;DHT22;8313;49.894;8.084;2022-12-07T17:09:56;5.10;99.90
16408;DHT22;8313;49.894;8.084;2022-12-07T17:12:22;5.10;99.90
16408;DHT22;8313;49.894;8.084;2022-12-07T17:14:48;5.10;99.90
16408;DHT22;8313;49.894;8.084;2022-12-07T17:17:56;5.10;99.90
16408;DHT22;8313;49.894;8.084;2022-12-07T17:20:24;5.20;99.90
16408;DHT22;8313;49.894;8.084;2022-12-07T17:22:50;5.30;99.90
16408;DHT22;8313;49.894;8.084;2022-12-07T17:25:16;5.20;99.90
16408;DHT22;8313;49.894;8.084;2022-12-07T17:27:42;5.10;99.90
16408;DHT22;8313;49.894;8.084;2022-12-07T17:30:08;5.00;99.90
16408;DHT22;8313;49.894;8.084;2022-12-07T17:32:34;4.90;99.90
16408;DHT22;8313;49.894;8.084;2022-12-07T17:35:00;4.80;99.90
16408;DHT22;8313;49.894;8.084;2022-12-07T17:37:26;4.70;99.90
16408;DHT22;8313;49.894;8.084;2022-12-07T17:39:52;4.60;99.90
16408;DHT22;8313;49.894;8.084;2022-12-07T17:42:21;4.70;99.90
16408;DHT22;8313;49.894;8.084;2022-12-07T17:45:07;4.70;99.90
16408;DHT22;8313;49.894;8.084;2022-12-07T17:47:34;4.80;99.90
16408;DHT22;8313;49.894;8.084;2022-12-07T17:50:00;4.80;99.90
16408;DHT22;8313;49.894;8.084;2022-12-07T17:52:26;4.80;99.90
16408;DHT22;8313;49.894;8.084;2022-12-07T17:55:10;4.90;99.90
16408;DHT22;8313;49.894;8.084;2022-12-07T17:57:35;4.90;99.90
16408;DHT22;8313;49.894;8.084;2022-12-07T18:00:03;4.90;99.90
16408;DHT22;8313;49.894;8.084;2022-12-07T18:02:37;4.90;99.90
16408;DHT22;8313;49.894;8.084;2022-12-07T18:05:03;4.90;99.90
16408;DHT22;8313;49.894;8.084;2022-12-07T18:07:29;4.80;99.90
16408;DHT22;8313;49.894;8.084;2022-12-07T18:09:55;4.80;99.90
16408;DHT22;8313;49.894;8.084;2022-12-07T18:12:20;4.70;99.90
16408;DHT22;8313;49.894;8.084;2022-12-07T18:14:46;4.70;99.90
16408;DHT22;8313;49.894;8.084;2022-12-07T18:17:13;4.60;99.90
16408;DHT22;8313;49.894;8.084;2022-12-07T18:19:39;4.50;99.90
16408;DHT22;8313;49.894;8.084;2022-12-07T18:22:04;4.50;99.90
16408;DHT22;8313;49.894;8.084;2022-12-07T18:24:30;4.40;99.90
16408;DHT22;8313;49.894;8.084;2022-12-07T18:26:56;4.50;99.90
16408;DHT22;8313;49.894;8.084;2022-12-07T18:29:22;4.50;99.90
16408;DHT22;8313;49.894;8.084;2022-12-07T18:31:47;4.50;99.90
16408;DHT22;8313;49.894;8.084;2022-12-07T18:34:16;4.50;99.90
16408;DHT22;8313;49.894;8.084;2022-12-07T18:36:44;4.60;99.90
16408;DHT22;8313;49.894;8.084;2022-12-07T18:39:11;4.70;99.90
16408;DHT22;8313;49.894;8.084;2022-12-07T18:41:40;4.60;99.90